Wonewoc, Wisconsin
Current Conditions -  °F | °C
As of 10:55 AM on Thursday 30 Oct 2014 (Local Time) from KC35 Reporting Station
Overcast Overcast  
Wind Chill: 42°   Ceiling: 9000
Heat Index: 42°   Visibility: 10mi
Dew Point: 36°   Wind: 0mph
Humidity: 80%   Direction: NA
Pressure: 30.09"   Gusts: NA
Location:  43.65°N, 90.22°W
Report Text: KC35 301555Z AUTO 00000KT 10SM BKN090 OVC120 06/02 A3009 RMK AO2 T00560024
Loading
Personal Weather Stations






























Interactive Weather Map
Tropical Storm Tracking
New forecast layout! Learn more

10-Day Weather Forecast

Advertisements
Track Severe Weather on mobile